Time;durP1;ratioP1;P1;durP2;ratioP2;P2;SDS_P1;SDS_P2;PMS_P1;PMS_P2;Temp;Humidity;BMP_temperature;BMP_pressure;BME280_temperature;BME280_humidity;BME280_pressure;Samples;Min_cycle;Max_cycle;Signal;HPM_P1;HPM_P2
2023/10/22 00:00:29;;;;;;;4.17;1.67;;;;;;;20.38;100.00;101043.19;2069440;28;20194;-70
2023/10/22 00:01:29;;;;;;;3.80;1.97;;;;;;;20.45;100.00;101046.38;2072470;28;20197;-69
2023/10/22 00:02:30;;;;;;;9.63;2.00;;;;;;;20.56;100.00;101042.94;2070897;28;20681;-69
2023/10/22 00:03:30;;;;;;;4.50;2.17;;;;;;;20.58;100.00;101038.34;2066004;28;20171;-70
2023/10/22 00:04:31;;;;;;;5.77;1.87;;;;;;;20.68;100.00;101039.78;2072750;28;20192;-70
2023/10/22 00:05:32;;;;;;;11.63;3.17;;;;;;;20.79;100.00;101039.94;2065515;28;20175;-70
2023/10/22 00:06:32;;;;;;;5.33;1.87;;;;;;;20.59;100.00;101014.59;2065247;28;20201;-70
2023/10/22 00:07:33;;;;;;;3.83;1.93;;;;;;;20.91;100.00;101052.13;2070686;28;20193;-70
2023/10/22 00:08:34;;;;;;;4.33;1.60;;;;;;;20.98;100.00;101046.09;2067296;28;20587;-70
2023/10/22 00:09:34;;;;;;;3.93;1.87;;;;;;;21.02;100.00;101038.19;2064936;28;20478;-70
2023/10/22 00:10:35;;;;;;;3.23;1.63;;;;;;;21.04;100.00;101044.13;2067290;28;20270;-69
2023/10/22 00:11:35;;;;;;;3.50;1.60;;;;;;;21.14;100.00;101043.47;2072714;28;20260;-69
2023/10/22 00:12:36;;;;;;;3.43;1.60;;;;;;;21.20;100.00;101044.31;2072768;28;20185;-69
2023/10/22 00:13:36;;;;;;;6.90;2.00;;;;;;;21.28;100.00;101045.44;2073479;28;20178;-70
2023/10/22 00:14:37;;;;;;;5.07;2.07;;;;;;;21.30;100.00;101045.72;2073315;28;20236;-70
2023/10/22 00:15:37;;;;;;;7.23;2.10;;;;;;;21.33;100.00;101058.06;2072906;28;20318;-70
2023/10/22 00:16:38;;;;;;;5.13;1.80;;;;;;;21.38;100.00;101058.09;2073206;28;20192;-69
2023/10/22 00:17:41;;;;;;;4.07;1.90;;;;;;;21.39;100.00;101067.34;2072234;28;20193;-69
2023/10/22 00:18:41;;;;;;;3.27;1.70;;;;;;;21.48;100.00;101056.66;2072803;28;20177;-69
2023/10/22 00:19:42;;;;;;;6.07;1.80;;;;;;;20.95;100.00;100973.81;2072861;28;20835;-69
2023/10/22 00:20:42;;;;;;;3.43;1.73;;;;;;;21.56;100.00;101062.63;2072431;28;20561;-69
2023/10/22 00:21:43;;;;;;;5.27;1.97;;;;;;;21.60;100.00;101063.97;2064816;28;20411;-69
2023/10/22 00:22:43;;;;;;;6.00;1.77;;;;;;;21.47;100.00;101052.31;2072047;28;20201;-69
2023/10/22 00:23:44;;;;;;;4.27;1.80;;;;;;;21.32;100.00;101028.28;2072798;28;20259;-68
2023/10/22 00:24:44;;;;;;;4.33;1.90;;;;;;;21.61;100.00;101073.22;2072967;28;20212;-68
2023/10/22 00:25:45;;;;;;;3.67;1.70;;;;;;;21.59;100.00;101072.94;2068928;28;20264;-68
2023/10/22 00:26:46;;;;;;;4.07;1.97;;;;;;;21.59;100.00;101073.69;2068099;28;20690;-68
2023/10/22 00:27:46;;;;;;;3.63;1.83;;;;;;;21.53;100.00;101061.59;2072386;28;20625;-68
2023/10/22 00:28:47;;;;;;;5.33;2.13;;;;;;;21.65;100.00;101077.34;2072437;28;20204;-69
2023/10/22 00:29:47;;;;;;;5.47;1.93;;;;;;;21.65;100.00;101077.34;2073372;28;20182;-68
2023/10/22 00:30:48;;;;;;;4.13;1.90;;;;;;;21.67;100.00;101077.63;2072476;28;20736;-68
2023/10/22 00:31:48;;;;;;;3.27;1.97;;;;;;;21.41;100.00;101037.38;2065749;28;20205;-68
2023/10/22 00:32:49;;;;;;;6.57;1.90;;;;;;;21.66;100.00;101076.09;2072568;28;20215;-68
2023/10/22 00:33:49;;;;;;;8.00;2.00;;;;;;;20.99;100.00;100966.69;2068666;28;20221;-68
2023/10/22 00:34:50;;;;;;;5.53;1.83;;;;;;;21.70;100.00;101073.06;2067518;28;20328;-68
2023/10/22 00:35:55;;;;;;;3.30;1.83;;;;;;;21.68;100.00;101090.50;2072673;28;20185;-69
2023/10/22 00:36:55;;;;;;;3.07;1.97;;;;;;;21.67;100.00;101077.63;2061705;28;20579;-69
2023/10/22 00:37:56;;;;;;;3.60;1.87;;;;;;;21.64;100.00;101072.97;2055973;28;20226;-68
2023/10/22 00:38:56;;;;;;;2.90;1.63;;;;;;;21.66;100.00;101076.09;2072971;28;20180;-68
2023/10/22 00:39:57;;;;;;;5.43;1.97;;;;;;;21.61;100.00;101062.72;2072887;28;20209;-68
2023/10/22 00:40:57;;;;;;;4.23;1.90;;;;;;;21.62;100.00;101069.09;2072788;28;20251;-68
2023/10/22 00:41:58;;;;;;;3.47;1.90;;;;;;;21.63;100.00;101067.81;2072478;28;20200;-68
2023/10/22 00:43:03;;;;;;;3.00;1.80;;;;;;;21.70;100.00;101064.63;2063806;28;20202;-68
2023/10/22 00:44:04;;;;;;;4.97;1.87;;;;;;;21.68;100.00;101067.94;2064737;28;20205;-68
2023/10/22 00:45:05;;;;;;;4.57;1.70;;;;;;;21.65;100.00;101057.59;2072647;28;20197;-68
2023/10/22 00:46:06;;;;;;;5.47;2.00;;;;;;;21.30;100.00;101006.25;2071783;28;20612;-68
2023/10/22 00:47:08;;;;;;;4.30;1.53;;;;;;;21.67;100.00;101054.28;2064794;28;20205;-68
2023/10/22 00:48:09;;;;;;;5.00;1.60;;;;;;;21.67;100.00;101055.06;2065022;28;20174;-69
2023/10/22 00:49:10;;;;;;;2.63;1.70;;;;;;;20.97;100.00;100952.34;2071441;28;20263;-69
2023/10/22 00:50:11;;;;;;;3.83;1.93;;;;;;;21.63;100.00;101048.88;2066786;28;20198;-69
2023/10/22 00:51:12;;;;;;;2.43;1.40;;;;;;;21.66;100.00;101045.06;2069146;28;20835;-69
2023/10/22 00:52:14;;;;;;;2.80;1.30;;;;;;;21.63;100.00;101031.16;2072196;28;20655;-69
2023/10/22 00:53:16;;;;;;;3.50;1.53;;;;;;;21.65;100.00;101031.47;2063871;28;20210;-69
2023/10/22 00:54:19;;;;;;;2.13;1.20;;;;;;;20.96;100.00;100922.63;2062461;28;20730;-69
2023/10/22 00:55:21;;;;;;;2.03;1.20;;;;;;;21.66;100.00;101028.13;2065748;28;20193;-69
2023/10/22 00:56:23;;;;;;;3.13;0.93;;;;;;;21.60;100.00;101024.47;2072290;28;20182;-69
2023/10/22 00:57:24;;;;;;;3.10;1.17;;;;;;;21.35;100.00;100982.19;2072675;28;20177;-69
2023/10/22 00:58:25;;;;;;;1.63;0.53;;;;;;;21.53;100.00;100995.94;2065112;28;20198;-69
2023/10/22 00:59:25;;;;;;;0.70;0.53;;;;;;;21.74;100.00;101022.84;2070625;28;20284;-69
2023/10/22 01:00:26;;;;;;;3.40;0.70;;;;;;;21.74;100.00;101009.50;2067390;28;20198;-69
2023/10/22 01:01:27;;;;;;;1.33;0.40;;;;;;;21.75;100.00;101004.66;2068384;28;20232;-69
2023/10/22 01:02:27;;;;;;;2.67;0.60;;;;;;;21.78;100.00;101001.59;2069762;28;20198;-69
2023/10/22 01:03:28;;;;;;;2.67;0.70;;;;;;;21.75;100.00;100999.00;2066037;28;20627;-69
2023/10/22 01:04:30;;;;;;;0.93;0.50;;;;;;;21.81;100.00;101005.47;2071918;28;20257;-69
2023/10/22 01:05:32;;;;;;;0.77;0.50;;;;;;;21.84;99.87;101010.09;2073141;28;20706;-69
2023/10/22 01:06:33;;;;;;;1.20;0.40;;;;;;;21.87;100.00;101011.91;2064643;28;20186;-69
2023/10/22 01:07:34;;;;;;;1.70;0.50;;;;;;;21.49;98.52;100950.31;2064280;28;20298;-69
2023/10/22 01:08:35;;;;;;;2.37;0.40;;;;;;;21.23;98.99;100912.91;2070137;28;20285;-69
2023/10/22 01:09:36;;;;;;;2.50;0.50;;;;;;;21.93;98.67;101007.88;2072591;28;20198;-69
2023/10/22 01:10:36;;;;;;;4.23;0.60;;;;;;;21.92;99.11;101009.16;2072304;28;20280;-69
2023/10/22 01:11:53;;;;;;;1.53;0.60;;;;;;;21.92;99.80;101003.53;2072002;28;20619;-69
2023/10/22 01:12:54;;;;;;;1.67;0.60;;;;;;;21.87;100.00;100987.31;2072552;28;20200;-69
2023/10/22 01:13:55;;;;;;;2.57;0.83;;;;;;;21.97;100.00;101005.59;2072607;28;20268;-69
2023/10/22 01:14:55;;;;;;;1.13;0.53;;;;;;;21.95;100.00;100996.84;2071299;28;20189;-69
2023/10/22 01:15:56;;;;;;;2.63;0.50;;;;;;;21.98;100.00;101001.50;2064455;28;20927;-69
2023/10/22 01:16:57;;;;;;;0.67;0.50;;;;;;;21.98;100.00;101017.66;2073025;28;20174;-69
2023/10/22 01:17:57;;;;;;;0.40;0.30;;;;;;;21.99;100.00;101008.69;2065262;28;20659;-69
2023/10/22 01:18:58;;;;;;;0.87;0.30;;;;;;;21.98;100.00;101001.50;2063909;28;20762;-69
2023/10/22 01:19:58;;;;;;;1.43;0.40;;;;;;;21.75;100.00;100979.25;2069163;28;20217;-69
2023/10/22 01:20:58;;;;;;;0.93;0.37;;;;;;;21.94;100.00;101003.78;2072618;28;20344;-69
2023/10/22 01:21:59;;;;;;;1.13;0.30;;;;;;;21.94;100.00;101009.41;2072142;28;20185;-69
2023/10/22 01:23:01;;;;;;;1.03;0.40;;;;;;;21.95;100.00;101002.50;2072341;28;20256;-69
2023/10/22 01:24:03;;;;;;;1.03;0.33;;;;;;;21.94;100.00;100995.31;2072458;28;20182;-69
2023/10/22 01:25:03;;;;;;;0.30;0.30;;;;;;;21.92;100.00;100997.88;2072910;28;20180;-69
2023/10/22 01:26:07;;;;;;;0.30;0.30;;;;;;;21.31;100.00;100906.31;2056132;28;20205;-69
2023/10/22 01:27:08;;;;;;;1.03;0.50;;;;;;;21.90;100.00;100986.28;2062387;28;20191;-69
2023/10/22 01:28:08;;;;;;;1.77;0.40;;;;;;;21.93;100.00;100990.94;2072186;28;20284;-69
2023/10/22 01:29:09;;;;;;;1.10;0.37;;;;;;;21.63;100.00;100938.88;2067610;28;20580;-69
2023/10/22 01:30:09;;;;;;;0.50;0.30;;;;;;;21.87;100.00;100986.53;2064312;28;20462;-69
2023/10/22 01:31:16;;;;;;;0.20;0.20;;;;;;;21.82;100.00;100990.09;2066535;28;20182;-69
2023/10/22 01:32:16;;;;;;;1.13;0.40;;;;;;;21.10;100.00;100875.88;2071337;28;21005;-69
2023/10/22 01:33:17;;;;;;;2.33;0.43;;;;;;;21.12;100.00;100884.59;2072035;28;20629;-69
2023/10/22 01:34:17;;;;;;;1.40;0.30;;;;;;;21.82;100.00;100996.50;2072775;28;20210;-69
2023/10/22 01:35:18;;;;;;;1.63;0.80;;;;;;;21.82;100.00;100995.72;2079310;28;20208;-69
2023/10/22 01:36:18;;;;;;;1.00;0.47;;;;;;;21.84;100.00;100991.13;2067764;28;20248;-70
2023/10/22 01:37:19;;;;;;;1.50;0.60;;;;;;;21.85;100.00;100992.66;2064022;28;20190;-70
2023/10/22 01:38:19;;;;;;;1.10;0.57;;;;;;;21.84;100.00;100993.16;2068417;28;20286;-70
2023/10/22 01:39:20;;;;;;;2.80;1.27;;;;;;;21.80;100.00;100995.47;2074619;28;20666;-69
2023/10/22 01:40:21;;;;;;;1.40;0.90;;;;;;;21.22;100.00;100905.69;2077068;28;20264;-69
2023/10/22 01:41:21;;;;;;;3.70;1.57;;;;;;;20.92;100.00;100860.09;2071248;28;20244;-69
2023/10/22 01:42:22;;;;;;;3.73;1.70;;;;;;;21.79;100.00;100988.25;2064392;28;20210;-69
2023/10/22 01:43:22;;;;;;;3.13;1.70;;;;;;;21.79;100.00;100976.97;2072218;28;20189;-70
2023/10/22 01:44:23;;;;;;;2.43;1.33;;;;;;;21.82;100.00;100990.88;2072207;28;20685;-70
2023/10/22 01:45:24;;;;;;;5.97;1.80;;;;;;;21.84;100.00;100976.25;2067242;28;20674;-70
2023/10/22 01:46:24;;;;;;;3.23;2.07;;;;;;;21.82;100.00;100968.28;2067600;28;20193;-69
2023/10/22 01:47:24;;;;;;;3.87;2.10;;;;;;;21.77;100.00;100956.97;2071741;28;20562;-69
2023/10/22 01:48:25;;;;;;;5.57;2.03;;;;;;;21.84;100.00;100962.91;2062819;28;20174;-69
2023/10/22 01:49:25;;;;;;;4.53;1.90;;;;;;;21.86;100.00;100966.00;2062846;28;20205;-69
2023/10/22 01:50:26;;;;;;;5.90;1.80;;;;;;;21.80;100.00;100955.97;2072620;28;20189;-69
2023/10/22 01:51:26;;;;;;;5.60;1.77;;;;;;;21.81;100.00;100968.78;2071864;28;20197;-69
2023/10/22 01:52:27;;;;;;;3.37;1.60;;;;;;;21.12;100.00;100865.66;2065796;28;20281;-70
2023/10/22 01:53:27;;;;;;;2.53;1.30;;;;;;;21.83;100.00;100978.31;2069316;28;20292;-69
2023/10/22 01:54:28;;;;;;;4.23;1.30;;;;;;;21.83;100.00;100975.47;2068320;28;20182;-70
2023/10/22 01:55:28;;;;;;;3.50;1.83;;;;;;;21.78;100.00;100966.97;2067085;28;20236;-69
2023/10/22 01:56:29;;;;;;;1.37;0.70;;;;;;;21.82;100.00;100968.28;2072128;28;20193;-70
2023/10/22 01:57:29;;;;;;;2.43;0.80;;;;;;;21.85;100.00;100972.16;2071752;28;20188;-70
2023/10/22 01:58:30;;;;;;;1.33;0.70;;;;;;;21.63;100.00;100947.34;2063780;28;20222;-69
2023/10/22 01:59:30;;;;;;;2.93;0.97;;;;;;;21.84;100.00;100964.94;2055988;28;20194;-70
2023/10/22 02:00:32;;;;;;;2.27;0.73;;;;;;;21.86;100.00;100974.47;2070277;28;20204;-69
2023/10/22 02:01:32;;;;;;;0.90;0.40;;;;;;;21.41;100.00;100912.53;2071808;28;20185;-69
2023/10/22 02:02:34;;;;;;;0.93;0.50;;;;;;;21.82;100.00;100985.22;2067651;28;20202;-69
2023/10/22 02:03:35;;;;;;;0.97;0.57;;;;;;;21.26;100.00;100914.72;2067529;28;20220;-69
2023/10/22 02:04:35;;;;;;;1.10;0.50;;;;;;;21.80;100.00;100987.00;2072016;28;20178;-69
2023/10/22 02:05:36;;;;;;;1.93;0.70;;;;;;;21.78;100.00;100995.16;2071550;28;20582;-69
2023/10/22 02:06:37;;;;;;;2.77;0.60;;;;;;;21.78;100.00;100993.13;2064591;28;20188;-69
2023/10/22 02:07:40;;;;;;;1.53;0.60;;;;;;;21.81;100.00;100992.13;2072139;28;20620;-69
2023/10/22 02:08:41;;;;;;;0.77;0.40;;;;;;;21.83;100.00;101000.88;2071187;28;20291;-69
2023/10/22 02:09:42;;;;;;;0.97;0.50;;;;;;;21.80;100.00;100987.75;2072439;28;20559;-69
2023/10/22 02:10:42;;;;;;;1.00;0.50;;;;;;;21.84;100.00;101002.41;2072199;28;20308;-69
2023/10/22 02:11:43;;;;;;;1.50;0.50;;;;;;;21.89;100.00;101003.72;2071833;28;20197;-69
2023/10/22 02:12:44;;;;;;;0.97;0.40;;;;;;;21.88;100.00;101005.00;2069785;28;20229;-69
2023/10/22 02:13:44;;;;;;;0.80;0.40;;;;;;;21.90;100.00;101010.94;2065256;28;20178;-69
2023/10/22 02:14:45;;;;;;;1.23;0.50;;;;;;;21.88;100.00;101022.72;2071773;28;20248;-69
2023/10/22 02:15:45;;;;;;;0.73;0.60;;;;;;;21.88;100.00;101021.94;2072564;28;20271;-69
2023/10/22 02:16:46;;;;;;;2.50;0.63;;;;;;;21.88;100.00;101024.75;2072187;28;20726;-69
2023/10/22 02:17:46;;;;;;;1.60;0.50;;;;;;;21.89;100.00;101015.78;2071713;28;20203;-70
2023/10/22 02:18:47;;;;;;;1.97;0.40;;;;;;;21.83;100.00;101005.72;2066952;28;20209;-69
2023/10/22 02:19:47;;;;;;;0.47;0.30;;;;;;;21.69;100.00;100993.31;2067958;28;20201;-69
2023/10/22 02:20:58;;;;;;;0.60;0.30;;;;;;;21.88;100.00;101017.06;2069361;28;20187;-69
2023/10/22 02:21:59;;;;;;;1.47;0.60;;;;;;;21.94;100.00;101009.41;2066612;28;20252;-69
2023/10/22 02:23:00;;;;;;;1.40;0.60;;;;;;;21.90;100.00;100994.75;2072134;28;20473;-69
2023/10/22 02:24:01;;;;;;;0.50;0.20;;;;;;;21.92;100.00;101000.69;2071982;28;20169;-69
2023/10/22 02:25:02;;;;;;;0.30;0.30;;;;;;;21.88;100.00;101008.59;2072600;28;20178;-69
2023/10/22 02:26:04;;;;;;;0.87;0.40;;;;;;;21.88;100.00;101005.78;2063960;28;20596;-69
2023/10/22 02:27:05;;;;;;;0.57;0.30;;;;;;;21.90;100.00;101017.34;2061768;28;20194;-69
2023/10/22 02:28:05;;;;;;;0.80;0.30;;;;;;;21.92;100.00;101017.63;2062933;28;20445;-69
2023/10/22 02:29:05;;;;;;;1.73;0.40;;;;;;;21.89;100.00;101015.78;2071603;28;20217;-69
2023/10/22 02:30:07;;;;;;;0.33;0.30;;;;;;;21.95;100.00;101024.31;2072227;28;20223;-69
2023/10/22 02:31:07;;;;;;;1.87;0.27;;;;;;;21.95;100.00;101032.78;2072052;28;20185;-69
2023/10/22 02:32:08;;;;;;;1.73;0.40;;;;;;;21.95;100.00;101033.53;2071132;28;20427;-69
2023/10/22 02:33:08;;;;;;;0.27;0.20;;;;;;;21.95;100.00;101033.53;2071185;28;20189;-69
2023/10/22 02:34:09;;;;;;;0.57;0.30;;;;;;;21.41;100.00;100952.00;2072386;28;20188;-69
2023/10/22 02:35:10;;;;;;;0.60;0.37;;;;;;;21.98;100.00;101037.41;2071940;28;20240;-69
2023/10/22 02:36:11;;;;;;;2.13;0.50;;;;;;;21.97;100.00;101035.88;2063365;28;20198;-69
2023/10/22 02:37:11;;;;;;;3.60;0.40;;;;;;;21.81;100.00;101017.50;2063214;28;20274;-69
2023/10/22 02:38:14;;;;;;;0.57;0.50;;;;;;;21.79;100.00;101008.78;2072115;28;20201;-69
2023/10/22 02:39:15;;;;;;;0.50;0.30;;;;;;;22.03;100.00;101040.28;2071874;28;20277;-69
2023/10/22 02:40:16;;;;;;;1.47;0.40;;;;;;;22.04;100.00;101041.81;2071964;28;20177;-69
2023/10/22 02:41:16;;;;;;;0.87;0.50;;;;;;;22.07;100.00;101040.06;2072408;28;20236;-69
2023/10/22 02:42:17;;;;;;;1.43;0.53;;;;;;;22.07;100.00;101042.88;2079983;28;20626;-69
2023/10/22 02:43:18;;;;;;;1.60;0.40;;;;;;;22.06;100.00;101041.34;2064414;28;20273;-69
2023/10/22 02:44:19;;;;;;;1.23;0.40;;;;;;;22.06;100.00;101042.09;2063951;28;20635;-69
2023/10/22 02:45:19;;;;;;;2.07;0.40;;;;;;;21.96;100.00;101031.50;2069675;28;20193;-69
2023/10/22 02:46:20;;;;;;;0.90;0.30;;;;;;;22.07;100.00;101051.34;2071896;28;20280;-69
2023/10/22 02:47:21;;;;;;;0.70;0.30;;;;;;;22.08;100.00;101052.88;2071490;28;20745;-69
2023/10/22 02:48:23;;;;;;;0.97;0.20;;;;;;;22.09;100.00;101046.75;2071974;28;20174;-69
2023/10/22 02:49:23;;;;;;;1.07;0.30;;;;;;;22.12;100.00;101054.22;2071805;28;20197;-69
2023/10/22 02:50:24;;;;;;;0.93;0.50;;;;;;;22.10;100.00;101048.28;2071933;28;20188;-69
2023/10/22 02:51:24;;;;;;;0.63;0.40;;;;;;;22.11;100.00;101049.06;2072161;28;20209;-69
2023/10/22 02:52:26;;;;;;;0.40;0.20;;;;;;;21.58;100.00;100967.03;2072064;28;20448;-69
2023/10/22 02:53:28;;;;;;;0.80;0.27;;;;;;;22.01;100.00;101030.78;2071843;28;20280;-69
2023/10/22 02:54:28;;;;;;;0.50;0.20;;;;;;;22.11;100.00;101052.66;2071866;28;20667;-69
2023/10/22 02:55:29;;;;;;;0.40;0.27;;;;;;;22.10;100.00;101048.28;2071853;28;20440;-69
2023/10/22 02:56:29;;;;;;;0.60;0.40;;;;;;;22.05;100.00;101046.19;2071720;28;20198;-69
2023/10/22 02:57:30;;;;;;;0.67;0.27;;;;;;;22.05;100.00;101053.91;2070084;28;20568;-69
2023/10/22 02:58:30;;;;;;;0.70;0.30;;;;;;;22.03;100.00;101057.22;2063665;28;20241;-69
2023/10/22 02:59:31;;;;;;;0.90;0.47;;;;;;;22.03;100.00;101070.53;2064367;28;20179;-69
2023/10/22 03:00:34;;;;;;;1.43;0.40;;;;;;;22.04;100.00;101069.25;2055103;28;20191;-69
2023/10/22 03:01:35;;;;;;;3.77;0.57;;;;;;;22.00;100.00;101066.69;2062040;28;20205;-69
2023/10/22 03:02:40;;;;;;;0.83;0.50;;;;;;;22.02;100.00;101060.53;2072230;28;20433;-69
2023/10/22 03:03:40;;;;;;;2.77;0.47;;;;;;;22.01;100.00;101056.94;2071866;28;20205;-69
2023/10/22 03:04:41;;;;;;;0.73;0.40;;;;;;;21.72;100.00;101019.75;2072002;28;20193;-69
2023/10/22 03:05:41;;;;;;;0.87;0.30;;;;;;;22.02;100.00;101058.50;2071797;28;20250;-69
2023/10/22 03:06:42;;;;;;;0.60;0.40;;;;;;;22.02;100.00;101058.50;2072132;28;20178;-69
2023/10/22 03:07:42;;;;;;;0.83;0.33;;;;;;;22.04;100.00;101057.97;2071540;28;20184;-70
2023/10/22 03:08:43;;;;;;;1.43;0.60;;;;;;;22.03;100.00;101060.03;2072118;28;20276;-69
2023/10/22 03:09:43;;;;;;;0.57;0.40;;;;;;;22.04;100.00;101069.25;2071752;28;20194;-69
2023/10/22 03:10:44;;;;;;;1.10;0.40;;;;;;;22.05;100.00;101057.47;2077761;28;20193;-69
2023/10/22 03:11:44;;;;;;;0.47;0.40;;;;;;;21.78;100.00;101020.56;2069402;28;20613;-69
2023/10/22 03:12:45;;;;;;;1.20;0.33;;;;;;;22.06;100.00;101070.31;2063811;28;20284;-69
2023/10/22 03:13:50;;;;;;;0.20;0.20;;;;;;;22.06;100.00;101075.94;2066492;28;20205;-69
2023/10/22 03:14:53;;;;;;;1.43;0.40;;;;;;;22.08;100.00;101067.00;2072088;28;20206;-69
2023/10/22 03:15:54;;;;;;;0.77;0.20;;;;;;;21.88;100.00;101044.50;2071628;28;20181;-69
2023/10/22 03:16:56;;;;;;;0.40;0.30;;;;;;;22.06;100.00;101075.94;2071918;28;20260;-69
2023/10/22 03:17:57;;;;;;;0.50;0.40;;;;;;;21.97;100.00;101058.44;2072374;28;20213;-69
2023/10/22 03:18:57;;;;;;;0.30;0.30;;;;;;;22.07;100.00;101068.28;2064001;28;20245;-69
2023/10/22 03:19:58;;;;;;;0.83;0.50;;;;;;;21.78;100.00;101035.44;2077026;28;20200;-69
2023/10/22 03:20:59;;;;;;;1.53;0.50;;;;;;;22.05;100.00;101073.66;2071292;28;20191;-69
2023/10/22 03:22:00;;;;;;;0.97;0.40;;;;;;;22.04;100.00;101074.91;2068352;28;20713;-69
2023/10/22 03:23:03;;;;;;;1.83;0.43;;;;;;;22.02;100.00;101075.44;2072391;28;20603;-69
2023/10/22 03:24:07;;;;;;;0.90;0.30;;;;;;;22.01;100.00;101079.50;2072807;28;20181;-69
2023/10/22 03:25:08;;;;;;;0.90;0.40;;;;;;;21.99;100.00;101087.72;2064462;28;20202;-69
2023/10/22 03:26:11;;;;;;;0.67;0.33;;;;;;;21.96;100.00;101071.75;2064779;28;20182;-69
2023/10/22 03:27:12;;;;;;;1.23;0.40;;;;;;;21.96;100.00;101071.00;2073511;28;20201;-69
2023/10/22 03:28:12;;;;;;;1.80;0.43;;;;;;;21.96;100.00;101068.94;2073109;28;20197;-69
2023/10/22 03:29:13;;;;;;;0.73;0.30;;;;;;;21.70;100.00;101042.03;2072902;28;20573;-69
2023/10/22 03:30:13;;;;;;;1.00;0.30;;;;;;;21.61;100.00;101019.63;2073290;28;20461;-69
2023/10/22 03:31:14;;;;;;;1.80;0.30;;;;;;;21.60;100.00;101032.94;2069137;28;20198;-69
2023/10/22 03:32:15;;;;;;;1.40;0.57;;;;;;;21.92;100.00;101064.81;2068266;28;20620;-69
2023/10/22 03:33:15;;;;;;;0.83;0.40;;;;;;;21.89;100.00;101068.63;2073167;28;20201;-69
2023/10/22 03:34:16;;;;;;;1.57;0.50;;;;;;;21.88;100.00;101067.06;2073313;28;20181;-69
2023/10/22 03:35:16;;;;;;;2.77;0.40;;;;;;;21.03;100.00;100944.72;2064911;28;20194;-69
2023/10/22 03:36:17;;;;;;;2.73;0.50;;;;;;;21.84;100.00;101089.09;2064343;28;20191;-69
2023/10/22 03:37:18;;;;;;;1.00;0.50;;;;;;;21.83;100.00;101067.81;2072520;28;20193;-69
2023/10/22 03:38:18;;;;;;;4.13;0.60;;;;;;;21.83;100.00;101064.97;2067512;28;20663;-69
2023/10/22 03:39:18;;;;;;;2.80;0.37;;;;;;;21.80;100.00;101075.22;2069807;28;20194;-69
2023/10/22 03:40:19;;;;;;;1.03;0.30;;;;;;;21.72;100.00;101053.59;2073076;28;20265;-69
2023/10/22 03:41:19;;;;;;;0.93;0.37;;;;;;;21.77;100.00;101070.59;2073349;28;20235;-69
2023/10/22 03:42:20;;;;;;;1.40;0.50;;;;;;;21.78;100.00;101076.97;2072424;28;20265;-69
2023/10/22 03:43:20;;;;;;;1.33;0.30;;;;;;;21.72;100.00;101081.81;2081776;28;20204;-69
2023/10/22 03:44:21;;;;;;;0.40;0.30;;;;;;;20.87;100.00;100948.09;2074112;28;20182;-69
2023/10/22 03:45:21;;;;;;;0.97;0.30;;;;;;;21.68;100.00;101075.56;2073159;28;20189;-69
2023/10/22 03:46:22;;;;;;;0.87;0.40;;;;;;;21.63;100.00;101074.25;2073447;28;20248;-69
2023/10/22 03:47:22;;;;;;;1.77;0.53;;;;;;;21.62;100.00;101081.19;2072921;28;20586;-69
2023/10/22 03:48:23;;;;;;;0.90;0.27;;;;;;;20.91;100.00;100976.88;2072617;28;20189;-69
2023/10/22 03:49:24;;;;;;;0.80;0.40;;;;;;;21.53;100.00;101074.91;2073214;28;20201;-69
2023/10/22 03:50:24;;;;;;;1.90;0.50;;;;;;;21.51;100.00;101077.44;2072437;28;20220;-69
2023/10/22 03:51:25;;;;;;;0.50;0.27;;;;;;;21.40;100.00;101066.81;2065007;28;20811;-70
2023/10/22 03:52:25;;;;;;;1.00;0.70;;;;;;;21.47;100.00;101076.91;2072809;28;20251;-69
2023/10/22 03:53:26;;;;;;;0.20;0.20;;;;;;;21.18;100.00;101043.28;2073200;28;20252;-69
2023/10/22 03:54:27;;;;;;;1.00;0.40;;;;;;;21.41;100.00;101073.25;2072934;28;20204;-69
2023/10/22 03:55:27;;;;;;;0.97;0.37;;;;;;;21.40;100.00;101078.09;2073204;28;20188;-69
2023/10/22 03:56:28;;;;;;;0.87;0.40;;;;;;;21.38;100.00;101075.00;2073016;28;20192;-69
2023/10/22 03:57:28;;;;;;;0.90;0.47;;;;;;;21.36;100.00;101073.97;2072882;28;20556;-69
2023/10/22 03:58:29;;;;;;;0.73;0.43;;;;;;;21.32;100.00;101076.22;2072779;28;20178;-69
2023/10/22 03:59:29;;;;;;;0.70;0.40;;;;;;;21.31;100.00;101085.94;2073550;28;20848;-69
2023/10/22 04:00:30;;;;;;;0.50;0.30;;;;;;;21.28;100.00;101082.06;2072921;28;20181;-69
2023/10/22 04:01:30;;;;;;;1.90;0.30;;;;;;;21.26;100.00;101081.00;2078880;28;20200;-69
2023/10/22 04:02:30;;;;;;;0.20;0.20;;;;;;;21.24;100.00;101086.38;2075828;28;20182;-69
2023/10/22 04:03:31;;;;;;;0.90;0.40;;;;;;;21.21;100.00;101085.31;2072978;28;20546;-69
2023/10/22 04:04:31;;;;;;;0.30;0.30;;;;;;;21.21;100.00;101084.53;2072906;28;20658;-69
2023/10/22 04:05:32;;;;;;;1.00;0.30;;;;;;;21.19;100.00;101087.84;2072249;28;20691;-69
2023/10/22 04:06:33;;;;;;;0.47;0.37;;;;;;;21.18;100.00;101085.56;2073113;28;20647;-69
2023/10/22 04:07:33;;;;;;;1.63;0.37;;;;;;;21.17;100.00;101081.94;2081466;28;20712;-69
2023/10/22 04:08:33;;;;;;;0.80;0.40;;;;;;;21.17;100.00;101083.97;2072895;28;20193;-69
2023/10/22 04:09:34;;;;;;;0.47;0.30;;;;;;;21.16;100.00;101091.66;2066367;28;20559;-69
2023/10/22 04:10:35;;;;;;;1.00;0.27;;;;;;;21.15;100.00;101090.13;2070622;28;20193;-69
2023/10/22 04:11:35;;;;;;;1.13;0.40;;;;;;;21.14;100.00;101090.63;2072335;28;20197;-69
2023/10/22 04:12:36;;;;;;;0.70;0.30;;;;;;;20.81;100.00;101045.84;2073084;28;20244;-69
2023/10/22 04:13:37;;;;;;;1.37;0.30;;;;;;;21.08;100.00;101084.91;2072754;28;20180;-69
2023/10/22 04:14:37;;;;;;;1.13;0.50;;;;;;;20.79;100.00;101047.63;2073310;28;20174;-69
2023/10/22 04:15:38;;;;;;;0.50;0.40;;;;;;;21.09;100.00;101094.13;2073355;28;20182;-69
2023/10/22 04:16:39;;;;;;;0.70;0.47;;;;;;;21.12;100.00;101095.94;2065411;28;20277;-69
2023/10/22 04:17:39;;;;;;;0.50;0.47;;;;;;;21.11;100.00;101105.69;2064404;28;20206;-69
2023/10/22 04:18:40;;;;;;;0.40;0.20;;;;;;;21.08;100.00;101095.41;2064522;28;20208;-69
2023/10/22 04:19:40;;;;;;;0.73;0.30;;;;;;;20.66;100.00;101028.25;2069194;28;20204;-69
2023/10/22 04:20:41;;;;;;;0.33;0.30;;;;;;;21.07;100.00;101094.63;2072947;28;20316;-69
2023/10/22 04:21:41;;;;;;;1.30;0.30;;;;;;;20.97;100.00;101087.56;2072383;28;20181;-69
2023/10/22 04:22:43;;;;;;;1.63;0.40;;;;;;;21.03;100.00;101094.06;2072799;28;20559;-69
2023/10/22 04:23:43;;;;;;;0.63;0.33;;;;;;;21.05;100.00;101091.53;2072758;28;20177;-69
2023/10/22 04:24:45;;;;;;;1.30;0.30;;;;;;;21.03;100.00;101096.88;2073418;28;20260;-69
2023/10/22 04:25:46;;;;;;;0.93;0.50;;;;;;;21.03;100.00;101096.88;2065546;28;20273;-69
2023/10/22 04:26:46;;;;;;;0.83;0.47;;;;;;;21.03;100.00;101094.06;2070442;28;20200;-69
2023/10/22 04:27:48;;;;;;;1.03;0.37;;;;;;;21.02;100.00;101100.19;2072505;28;20204;-69
2023/10/22 04:28:48;;;;;;;0.40;0.30;;;;;;;20.66;100.00;101041.53;2072689;28;20216;-69
2023/10/22 04:29:49;;;;;;;2.17;0.50;;;;;;;20.98;100.00;101099.63;2070068;28;20652;-69
2023/10/22 04:30:50;;;;;;;0.57;0.43;;;;;;;20.35;100.00;101010.38;2066273;28;20708;-69
2023/10/22 04:31:50;;;;;;;0.67;0.37;;;;;;;20.99;100.00;101112.44;2071066;28;20189;-69
2023/10/22 04:32:51;;;;;;;0.90;0.40;;;;;;;20.98;100.00;101110.91;2064675;28;20190;-69
2023/10/22 04:33:52;;;;;;;1.90;0.60;;;;;;;20.96;100.00;101114.22;2072455;28;20201;-69
2023/10/22 04:34:53;;;;;;;0.87;0.40;;;;;;;20.94;100.00;101116.72;2072732;28;20242;-69
2023/10/22 04:35:53;;;;;;;1.23;0.30;;;;;;;20.89;100.00;101111.81;2067532;28;20449;-69
2023/10/22 04:36:54;;;;;;;1.47;0.50;;;;;;;20.88;100.00;101109.47;2068995;28;20189;-69
2023/10/22 04:37:55;;;;;;;1.27;0.40;;;;;;;20.88;100.00;101101.75;2072454;28;20193;-69
2023/10/22 04:38:55;;;;;;;0.30;0.20;;;;;;;20.81;100.00;101090.13;2072654;28;20599;-69
2023/10/22 04:39:56;;;;;;;0.70;0.30;;;;;;;20.89;100.00;101103.38;2072645;28;20436;-70